Time;durP1;ratioP1;P1;durP2;ratioP2;P2;SDS_P1;SDS_P2;PMS_P1;PMS_P2;Temp;Humidity;BMP_temperature;BMP_pressure;BME280_temperature;BME280_humidity;BME280_pressure;Samples;Min_cycle;Max_cycle;Signal;HPM_P1;HPM_P2
2021/01/08 00:01:53;;;;;;;14.27;10.98;;;;;;;;;;5019272;28;20211;-86
2021/01/08 00:04:21;;;;;;;10.80;9.10;;;;;;;;;;5035496;28;20289;-86
2021/01/08 00:06:47;;;;;;;12.77;8.88;;;;;;;;;;5036734;28;20698;-86
2021/01/08 00:09:13;;;;;;;16.90;10.93;;;;;;;;;;5033909;28;20191;-86
2021/01/08 00:11:39;;;;;;;13.33;10.40;;;;;;;;;;5025839;28;20189;-86
2021/01/08 00:14:05;;;;;;;14.13;9.90;;;;;;;;;;5033168;28;20410;-85
2021/01/08 00:16:34;;;;;;;11.52;10.35;;;;;;;;;;5024851;28;20460;-86
2021/01/08 00:19:01;;;;;;;14.80;11.27;;;;;;;;;;5033623;28;20194;-86
2021/01/08 00:21:37;;;;;;;15.43;11.07;;;;;;;;;;5035409;28;20187;-86
2021/01/08 00:24:03;;;;;;;19.13;11.18;;;;;;;;;;5016431;28;20205;-86
2021/01/08 00:26:29;;;;;;;16.00;10.77;;;;;;;;;;5035224;28;20190;-85
2021/01/08 00:28:55;;;;;;;14.57;11.23;;;;;;;;;;5020605;28;20193;-86
2021/01/08 00:31:21;;;;;;;18.07;12.70;;;;;;;;;;5019949;28;20254;-86
2021/01/08 00:33:47;;;;;;;19.70;13.88;;;;;;;;;;5018757;28;20440;-85
2021/01/08 00:36:13;;;;;;;13.38;11.32;;;;;;;;;;5033474;28;20183;-86
2021/01/08 00:38:39;;;;;;;13.68;11.65;;;;;;;;;;5027688;28;20179;-85
2021/01/08 00:41:05;;;;;;;16.65;10.52;;;;;;;;;;5036980;28;20178;-84
2021/01/08 00:43:31;;;;;;;13.60;11.48;;;;;;;;;;5019844;28;20214;-85
2021/01/08 00:45:57;;;;;;;17.35;10.60;;;;;;;;;;5017010;28;20218;-85
2021/01/08 00:48:23;;;;;;;17.52;11.88;;;;;;;;;;5019147;28;20183;-84
2021/01/08 00:50:49;;;;;;;14.48;10.85;;;;;;;;;;5022494;28;20206;-85
2021/01/08 00:53:15;;;;;;;15.10;11.55;;;;;;;;;;5032747;28;20208;-86
2021/01/08 00:55:41;;;;;;;16.33;12.05;;;;;;;;;;5019345;28;20241;-86
2021/01/08 00:58:07;;;;;;;16.52;11.18;;;;;;;;;;5019744;28;20560;-85
2021/01/08 01:00:32;;;;;;;13.10;10.27;;;;;;;;;;5036546;28;20230;-86
2021/01/08 01:02:58;;;;;;;13.15;11.00;;;;;;;;;;5021239;28;20193;-86
2021/01/08 01:05:24;;;;;;;18.33;12.30;;;;;;;;;;5034328;28;20202;-86
2021/01/08 01:07:50;;;;;;;17.52;12.07;;;;;;;;;;5019148;28;20186;-86
2021/01/08 01:10:16;;;;;;;17.50;10.80;;;;;;;;;;5030623;28;20214;-86
2021/01/08 01:12:42;;;;;;;14.43;11.60;;;;;;;;;;5034948;28;20325;-86
2021/01/08 01:15:08;;;;;;;18.10;11.32;;;;;;;;;;5032139;28;21006;-86
2021/01/08 01:17:39;;;;;;;11.75;10.38;;;;;;;;;;5026703;28;20273;-86
2021/01/08 01:20:05;;;;;;;14.90;10.43;;;;;;;;;;5032350;28;20236;-86
2021/01/08 01:22:31;;;;;;;15.13;11.98;;;;;;;;;;5019709;28;20258;-86
2021/01/08 01:24:57;;;;;;;16.40;11.57;;;;;;;;;;5016666;28;20237;-86
2021/01/08 01:27:23;;;;;;;15.05;10.75;;;;;;;;;;5033587;28;20251;-85
2021/01/08 01:29:49;;;;;;;13.75;10.80;;;;;;;;;;5022970;28;20175;-85
2021/01/08 01:32:15;;;;;;;16.25;11.20;;;;;;;;;;5032553;28;20174;-86
2021/01/08 01:34:41;;;;;;;16.83;11.48;;;;;;;;;;5019341;28;20190;-86
2021/01/08 01:37:07;;;;;;;18.77;11.20;;;;;;;;;;5015948;28;20187;-86
2021/01/08 01:39:33;;;;;;;18.17;10.88;;;;;;;;;;5031549;28;20562;-86
2021/01/08 01:41:59;;;;;;;15.32;10.95;;;;;;;;;;5035653;28;20191;-86
2021/01/08 01:44:25;;;;;;;19.55;12.00;;;;;;;;;;5025794;28;20203;-85
2021/01/08 01:46:51;;;;;;;18.88;11.85;;;;;;;;;;5018023;28;20178;-85
2021/01/08 01:49:17;;;;;;;14.70;11.30;;;;;;;;;;5020023;28;20194;-85
2021/01/08 01:51:43;;;;;;;17.40;11.57;;;;;;;;;;5018862;28;20172;-86
2021/01/08 01:54:09;;;;;;;13.15;11.68;;;;;;;;;;5031481;28;20678;-86
2021/01/08 01:56:35;;;;;;;16.38;11.10;;;;;;;;;;5022925;28;20179;-85
2021/01/08 01:59:01;;;;;;;15.70;11.03;;;;;;;;;;5030627;28;20713;-86
2021/01/08 02:01:27;;;;;;;19.98;11.13;;;;;;;;;;5030525;28;20450;-85
2021/01/08 02:03:56;;;;;;;16.63;11.93;;;;;;;;;;5027803;28;20221;-86
2021/01/08 02:06:24;;;;;;;13.65;10.77;;;;;;;;;;5021272;28;20491;-85
2021/01/08 02:08:58;;;;;;;14.35;11.35;;;;;;;;;;5028984;28;20197;-85
2021/01/08 02:11:26;;;;;;;16.15;10.60;;;;;;;;;;5039879;28;20169;-85
2021/01/08 02:13:55;;;;;;;13.65;10.60;;;;;;;;;;5036269;28;20214;-85
2021/01/08 02:16:22;;;;;;;21.23;10.68;;;;;;;;;;5025996;28;20197;-85
2021/01/08 02:18:51;;;;;;;13.20;10.15;;;;;;;;;;5023379;28;20221;-83
2021/01/08 02:21:23;;;;;;;13.68;9.40;;;;;;;;;;5038970;28;20544;-86
2021/01/08 02:23:49;;;;;;;17.92;10.52;;;;;;;;;;5028935;28;20269;-85
2021/01/08 02:26:17;;;;;;;13.60;9.77;;;;;;;;;;5039919;28;20174;-85
2021/01/08 02:28:43;;;;;;;13.82;10.48;;;;;;;;;;5024629;28;20182;-86
2021/01/08 02:31:09;;;;;;;13.38;10.27;;;;;;;;;;5026606;28;20663;-86
2021/01/08 02:33:35;;;;;;;15.73;12.05;;;;;;;;;;5043221;28;20186;-86
2021/01/08 02:36:02;;;;;;;11.20;9.55;;;;;;;;;;5037435;28;20178;-85
2021/01/08 02:38:28;;;;;;;13.60;9.55;;;;;;;;;;5045661;28;20189;-85
2021/01/08 02:40:55;;;;;;;12.75;10.48;;;;;;;;;;5041717;28;20189;-85
2021/01/08 02:43:25;;;;;;;12.70;9.75;;;;;;;;;;5027901;28;20190;-84
2021/01/08 02:45:52;;;;;;;11.77;9.60;;;;;;;;;;5032671;28;20229;-85
2021/01/08 02:48:18;;;;;;;13.65;10.27;;;;;;;;;;5038586;28;20187;-86
2021/01/08 02:50:45;;;;;;;16.60;9.50;;;;;;;;;;5028085;28;20262;-86
2021/01/08 02:53:13;;;;;;;18.38;11.35;;;;;;;;;;5037577;28;20280;-86
2021/01/08 02:55:40;;;;;;;14.80;10.85;;;;;;;;;;5024642;28;20182;-84
2021/01/08 02:58:07;;;;;;;12.70;10.10;;;;;;;;;;5026248;28;20221;-84
2021/01/08 03:00:33;;;;;;;15.40;11.13;;;;;;;;;;5042281;28;20237;-86
2021/01/08 03:03:03;;;;;;;15.23;10.70;;;;;;;;;;5027089;28;20222;-86
2021/01/08 03:05:30;;;;;;;14.30;10.50;;;;;;;;;;5033280;28;20264;-85
2021/01/08 03:07:57;;;;;;;13.20;9.38;;;;;;;;;;5025065;28;20689;-85
2021/01/08 03:10:24;;;;;;;13.15;10.65;;;;;;;;;;5037495;28;20645;-85
2021/01/08 03:12:52;;;;;;;14.40;9.80;;;;;;;;;;5023827;28;20182;-85
2021/01/08 03:15:19;;;;;;;13.32;9.73;;;;;;;;;;5038668;28;20189;-85
2021/01/08 03:17:45;;;;;;;16.90;9.90;;;;;;;;;;5023018;28;20182;-85
2021/01/08 03:20:11;;;;;;;12.50;10.40;;;;;;;;;;5032879;28;20198;-84
2021/01/08 03:22:37;;;;;;;13.55;10.18;;;;;;;;;;5023081;28;20205;-85
2021/01/08 03:25:03;;;;;;;11.00;9.10;;;;;;;;;;5021811;28;20248;-85
2021/01/08 03:27:29;;;;;;;12.90;10.02;;;;;;;;;;5037781;28;20245;-85
2021/01/08 03:29:55;;;;;;;13.10;9.52;;;;;;;;;;5023212;28;20178;-85
2021/01/08 03:32:21;;;;;;;12.15;10.43;;;;;;;;;;5039841;28;20192;-85
2021/01/08 03:34:47;;;;;;;12.40;9.30;;;;;;;;;;5022736;28;20250;-85
2021/01/08 03:37:13;;;;;;;13.32;8.85;;;;;;;;;;5021118;28;20187;-86
2021/01/08 03:39:39;;;;;;;12.10;9.65;;;;;;;;;;5033813;28;20241;-86
2021/01/08 03:42:05;;;;;;;12.07;10.50;;;;;;;;;;5037253;28;20674;-85
2021/01/08 03:44:31;;;;;;;12.40;8.80;;;;;;;;;;5025807;28;20203;-85
2021/01/08 03:46:57;;;;;;;11.82;9.32;;;;;;;;;;5032407;28;20217;-85
2021/01/08 03:49:23;;;;;;;10.63;9.52;;;;;;;;;;5025719;28;20549;-85
2021/01/08 03:51:49;;;;;;;14.57;10.13;;;;;;;;;;5019795;28;20250;-87
2021/01/08 03:54:15;;;;;;;11.82;9.55;;;;;;;;;;5034704;28;20442;-86
2021/01/08 03:56:41;;;;;;;11.63;8.88;;;;;;;;;;5025714;28;20186;-85
2021/01/08 03:59:07;;;;;;;12.40;9.88;;;;;;;;;;5032843;28;20241;-85
2021/01/08 04:01:33;;;;;;;12.15;9.77;;;;;;;;;;5032099;28;20198;-86
2021/01/08 04:03:59;;;;;;;14.07;8.70;;;;;;;;;;5036893;28;20201;-86
2021/01/08 04:06:25;;;;;;;11.77;9.45;;;;;;;;;;5030194;28;20174;-85
2021/01/08 04:08:51;;;;;;;13.00;9.10;;;;;;;;;;5024778;28;20205;-85
2021/01/08 04:11:17;;;;;;;12.73;10.02;;;;;;;;;;5038903;28;20182;-85
2021/01/08 04:13:43;;;;;;;12.98;10.00;;;;;;;;;;5020075;28;20269;-86
2021/01/08 04:16:09;;;;;;;13.50;10.05;;;;;;;;;;5021054;28;20262;-85
2021/01/08 04:18:35;;;;;;;11.98;9.18;;;;;;;;;;5036762;28;20193;-85
2021/01/08 04:21:01;;;;;;;14.98;9.18;;;;;;;;;;5021497;28;20186;-85
2021/01/08 04:23:27;;;;;;;10.32;9.20;;;;;;;;;;5035410;28;20257;-85
2021/01/08 04:25:53;;;;;;;14.30;10.05;;;;;;;;;;5031676;28;20711;-86
2021/01/08 04:28:19;;;;;;;13.95;11.20;;;;;;;;;;5020465;28;20193;-86
2021/01/08 04:30:45;;;;;;;13.00;10.93;;;;;;;;;;5028655;28;20221;-86
2021/01/08 04:33:10;;;;;;;13.07;10.02;;;;;;;;;;5032618;28;20183;-86
2021/01/08 04:35:36;;;;;;;15.60;10.03;;;;;;;;;;5026937;28;20187;-85
2021/01/08 04:38:02;;;;;;;11.98;9.90;;;;;;;;;;5032524;28;20473;-85
2021/01/08 04:40:29;;;;;;;11.07;8.90;;;;;;;;;;5020526;28;20257;-86
2021/01/08 04:42:55;;;;;;;13.77;11.02;;;;;;;;;;5019090;28;20194;-86
2021/01/08 04:45:21;;;;;;;14.10;9.85;;;;;;;;;;5017782;28;20214;-85
2021/01/08 04:47:47;;;;;;;14.82;10.85;;;;;;;;;;5024507;28;20218;-85
2021/01/08 04:50:14;;;;;;;11.93;9.35;;;;;;;;;;5033130;28;20209;-86
2021/01/08 04:52:40;;;;;;;12.95;10.82;;;;;;;;;;5017437;28;20186;-86
2021/01/08 04:55:06;;;;;;;12.63;9.50;;;;;;;;;;5023308;28;20268;-85
2021/01/08 04:57:33;;;;;;;11.73;9.57;;;;;;;;;;5035996;28;20194;-86
2021/01/08 05:00:00;;;;;;;11.95;9.45;;;;;;;;;;5020766;28;20223;-86
2021/01/08 05:02:26;;;;;;;12.73;10.00;;;;;;;;;;5034199;28;20186;-86
2021/01/08 05:04:53;;;;;;;14.02;10.18;;;;;;;;;;5021596;28;20241;-85
2021/01/08 05:07:19;;;;;;;16.38;10.10;;;;;;;;;;5029804;28;20202;-85
2021/01/08 05:09:45;;;;;;;13.02;9.00;;;;;;;;;;5021912;28;20197;-86
2021/01/08 05:12:11;;;;;;;11.27;9.43;;;;;;;;;;5031579;28;20179;-85
2021/01/08 05:14:37;;;;;;;12.00;9.90;;;;;;;;;;5019017;28;20174;-85
2021/01/08 05:17:03;;;;;;;11.75;9.20;;;;;;;;;;5031631;28;20209;-86
2021/01/08 05:19:29;;;;;;;10.93;9.85;;;;;;;;;;5022993;28;20294;-85
2021/01/08 05:21:55;;;;;;;15.20;10.38;;;;;;;;;;5025815;28;20683;-86
2021/01/08 05:24:23;;;;;;;10.57;9.20;;;;;;;;;;5035422;28;20206;-86
2021/01/08 05:26:49;;;;;;;12.10;9.40;;;;;;;;;;5023535;28;20202;-85
2021/01/08 05:29:15;;;;;;;14.30;9.55;;;;;;;;;;5032777;28;20167;-86
2021/01/08 05:31:42;;;;;;;11.65;9.40;;;;;;;;;;5030313;28;20197;-85
2021/01/08 05:34:08;;;;;;;13.90;9.32;;;;;;;;;;5031343;28;20203;-85
2021/01/08 05:36:36;;;;;;;13.40;10.40;;;;;;;;;;5032012;28;20183;-85
2021/01/08 05:39:02;;;;;;;18.23;10.50;;;;;;;;;;5031238;28;20183;-86
2021/01/08 05:41:29;;;;;;;12.60;9.23;;;;;;;;;;5033470;28;20170;-85
2021/01/08 05:43:56;;;;;;;12.02;8.93;;;;;;;;;;5029616;28;20257;-86
2021/01/08 05:46:34;;;;;;;11.45;9.05;;;;;;;;;;5030620;28;20202;-86
2021/01/08 05:49:00;;;;;;;11.63;8.07;;;;;;;;;;5032890;28;20652;-85
2021/01/08 05:51:33;;;;;;;11.60;8.30;;;;;;;;;;5034195;28;20178;-86
2021/01/08 05:54:00;;;;;;;10.30;7.70;;;;;;;;;;5019379;28;20450;-86
2021/01/08 05:56:26;;;;;;;11.10;7.75;;;;;;;;;;5033153;28;20180;-85
2021/01/08 05:58:52;;;;;;;11.68;8.18;;;;;;;;;;5029713;28;20182;-87
2021/01/08 06:01:18;;;;;;;9.52;8.05;;;;;;;;;;5017348;28;20233;-88
2021/01/08 06:03:45;;;;;;;9.18;7.65;;;;;;;;;;5035605;28;20306;-87
2021/01/08 06:06:12;;;;;;;14.73;8.80;;;;;;;;;;5037998;28;20602;-86
2021/01/08 06:08:45;;;;;;;10.30;9.10;;;;;;;;;;5025501;28;20206;-86
2021/01/08 06:11:21;;;;;;;12.38;8.57;;;;;;;;;;5033866;28;20177;-87
2021/01/08 06:13:51;;;;;;;8.80;6.93;;;;;;;;;;5031155;28;20186;-85
2021/01/08 06:16:19;;;;;;;11.80;9.05;;;;;;;;;;5020071;28;20647;-87
2021/01/08 06:18:46;;;;;;;10.45;7.65;;;;;;;;;;5015929;28;20194;-86
2021/01/08 06:21:12;;;;;;;9.90;7.32;;;;;;;;;;5022886;28;20209;-85
2021/01/08 06:23:42;;;;;;;9.82;8.05;;;;;;;;;;5024615;28;20228;-85
2021/01/08 06:26:11;;;;;;;10.02;7.55;;;;;;;;;;5022772;28;20236;-86
2021/01/08 06:28:38;;;;;;;12.00;8.88;;;;;;;;;;5028883;28;20179;-86
2021/01/08 06:31:06;;;;;;;9.45;7.93;;;;;;;;;;5035332;28;20182;-86
2021/01/08 06:33:38;;;;;;;11.57;8.25;;;;;;;;;;5019999;28;20663;-86
2021/01/08 06:36:15;;;;;;;10.80;8.55;;;;;;;;;;5030445;28;20205;-87
2021/01/08 06:38:44;;;;;;;9.10;7.32;;;;;;;;;;5035186;28;20193;-85
2021/01/08 06:41:13;;;;;;;9.55;7.53;;;;;;;;;;5031564;28;20182;-86
2021/01/08 06:43:41;;;;;;;10.85;7.20;;;;;;;;;;5017900;28;20193;-87
2021/01/08 06:46:12;;;;;;;10.45;7.63;;;;;;;;;;5018894;28;20206;-87
2021/01/08 06:48:40;;;;;;;12.43;8.45;;;;;;;;;;5035097;28;20262;-86
2021/01/08 06:51:07;;;;;;;9.95;7.13;;;;;;;;;;5030908;28;20208;-87
2021/01/08 06:53:33;;;;;;;13.38;7.93;;;;;;;;;;5023768;28;20230;-87
2021/01/08 06:56:03;;;;;;;9.88;6.80;;;;;;;;;;5033558;28;20187;-87
2021/01/08 06:58:30;;;;;;;10.23;7.18;;;;;;;;;;5033389;28;20191;-88
2021/01/08 07:00:58;;;;;;;11.40;7.85;;;;;;;;;;5037105;28;20230;-88
2021/01/08 07:03:24;;;;;;;8.95;7.40;;;;;;;;;;5037003;28;20254;-87
2021/01/08 07:05:55;;;;;;;10.50;7.20;;;;;;;;;;5040452;28;20247;-87
2021/01/08 07:08:23;;;;;;;10.02;7.88;;;;;;;;;;5019833;28;20178;-88
2021/01/08 07:10:54;;;;;;;9.98;7.88;;;;;;;;;;5033599;28;20286;-88
2021/01/08 07:13:30;;;;;;;8.35;6.68;;;;;;;;;;5022354;28;20186;-87
2021/01/08 07:15:56;;;;;;;9.48;7.20;;;;;;;;;;5029582;28;20274;-87
2021/01/08 07:18:27;;;;;;;9.63;6.65;;;;;;;;;;5037832;28;20207;-87
2021/01/08 07:20:54;;;;;;;14.57;8.07;;;;;;;;;;5025424;28;20178;-87
2021/01/08 07:23:25;;;;;;;9.95;8.20;;;;;;;;;;5036152;28;20190;-87
2021/01/08 07:25:54;;;;;;;9.80;7.20;;;;;;;;;;5034716;28;20317;-87
2021/01/08 07:28:20;;;;;;;11.95;7.93;;;;;;;;;;5027527;28;20245;-87
2021/01/08 07:31:06;;;;;;;11.20;7.45;;;;;;;;;;5026360;28;20215;-87
2021/01/08 07:33:32;;;;;;;8.60;7.05;;;;;;;;;;5034319;28;20179;-87
2021/01/08 07:35:58;;;;;;;10.90;7.90;;;;;;;;;;5039076;28;20182;-87
2021/01/08 07:38:33;;;;;;;10.90;8.05;;;;;;;;;;5036244;28;20195;-88
2021/01/08 07:40:59;;;;;;;8.95;7.47;;;;;;;;;;5023264;28;20208;-87
2021/01/08 07:43:32;;;;;;;9.23;7.00;;;;;;;;;;5033200;28;20186;-87
2021/01/08 07:45:59;;;;;;;10.32;7.93;;;;;;;;;;5034933;28;20210;-87
2021/01/08 07:48:26;;;;;;;9.27;6.50;;;;;;;;;;5036453;28;20215;-87
2021/01/08 07:50:53;;;;;;;9.45;7.20;;;;;;;;;;5025953;28;20170;-87
2021/01/08 07:53:37;;;;;;;9.38;7.55;;;;;;;;;;5036068;28;20162;-87
2021/01/08 07:56:07;;;;;;;9.68;6.72;;;;;;;;;;5030651;28;20187;-86
2021/01/08 07:58:33;;;;;;;14.68;7.50;;;;;;;;;;5022029;28;20192;-86
2021/01/08 08:00:59;;;;;;;10.27;6.10;;;;;;;;;;5024405;28;20242;-86
2021/01/08 08:03:26;;;;;;;18.88;7.85;;;;;;;;;;5052904;28;20190;-86
2021/01/08 08:05:52;;;;;;;11.07;6.80;;;;;;;;;;5029634;28;20267;-85
2021/01/08 08:08:18;;;;;;;9.13;7.18;;;;;;;;;;5040006;28;20182;-85
2021/01/08 08:10:44;;;;;;;9.98;6.63;;;;;;;;;;5037231;28;20600;-86
2021/01/08 08:13:12;;;;;;;6.90;5.97;;;;;;;;;;5024081;28;20218;-85
2021/01/08 08:15:45;;;;;;;7.65;5.85;;;;;;;;;;5021177;28;20217;-85
2021/01/08 08:18:12;;;;;;;9.43;6.28;;;;;;;;;;5032654;28;20606;-84
2021/01/08 08:20:37;;;;;;;7.00;5.82;;;;;;;;;;5034938;28;20187;-84
2021/01/08 08:23:14;;;;;;;8.70;6.25;;;;;;;;;;5039757;28;20205;-84
2021/01/08 08:25:40;;;;;;;9.35;6.75;;;;;;;;;;5022813;28;20221;-84
2021/01/08 08:28:06;;;;;;;8.30;6.25;;;;;;;;;;5032132;28;20193;-86
2021/01/08 08:30:32;;;;;;;9.20;6.50;;;;;;;;;;5038468;28;20186;-85
2021/01/08 08:32:59;;;;;;;14.57;6.30;;;;;;;;;;5029782;28;20270;-85
2021/01/08 08:35:25;;;;;;;9.20;6.35;;;;;;;;;;5034849;28;20178;-84
2021/01/08 08:37:52;;;;;;;10.52;7.80;;;;;;;;;;5019700;28;20174;-84
2021/01/08 08:40:21;;;;;;;12.88;7.78;;;;;;;;;;5033060;28;20220;-83
2021/01/08 08:42:55;;;;;;;9.88;7.68;;;;;;;;;;5038036;28;20202;-84
2021/01/08 08:45:21;;;;;;;10.52;7.20;;;;;;;;;;5016702;28;20203;-83
2021/01/08 08:47:48;;;;;;;11.05;8.13;;;;;;;;;;5024798;28;20198;-85
2021/01/08 08:50:14;;;;;;;10.23;6.72;;;;;;;;;;5033548;28;20167;-84
2021/01/08 08:52:40;;;;;;;13.55;8.07;;;;;;;;;;5019584;28;20186;-85
2021/01/08 08:55:07;;;;;;;9.57;7.00;;;;;;;;;;5035664;28;20384;-84
2021/01/08 08:57:33;;;;;;;10.10;7.57;;;;;;;;;;5019868;28;20197;-84
2021/01/08 08:59:59;;;;;;;9.93;7.43;;;;;;;;;;5021433;28;20270;-82
2021/01/08 09:02:26;;;;;;;9.82;7.85;;;;;;;;;;5023675;28;20201;-84
2021/01/08 09:04:59;;;;;;;13.52;7.95;;;;;;;;;;5032319;28;20236;-85
2021/01/08 09:07:34;;;;;;;9.82;7.90;;;;;;;;;;5032110;28;20210;-85
2021/01/08 09:10:03;;;;;;;8.02;7.22;;;;;;;;;;5016507;28;20182;-85
2021/01/08 09:12:48;;;;;;;9.30;6.82;;;;;;;;;;5034946;28;20187;-86
2021/01/08 09:15:26;;;;;;;8.57;7.07;;;;;;;;;;5016412;28;20229;-86
2021/01/08 09:17:57;;;;;;;9.85;6.22;;;;;;;;;;5022535;28;20190;-84
2021/01/08 09:20:25;;;;;;;9.85;7.50;;;;;;;;;;5038018;28;20205;-83
2021/01/08 09:22:51;;;;;;;8.65;7.50;;;;;;;;;;5027792;28;20186;-84
2021/01/08 09:25:18;;;;;;;9.55;7.40;;;;;;;;;;5029331;28;20213;-84
2021/01/08 09:27:44;;;;;;;11.13;8.75;;;;;;;;;;5036169;28;20205;-85
2021/01/08 09:30:13;;;;;;;12.88;7.80;;;;;;;;;;5037264;28;20197;-84
2021/01/08 09:32:39;;;;;;;10.70;7.50;;;;;;;;;;5037739;28;20170;-84
2021/01/08 09:35:08;;;;;;;11.10;7.45;;;;;;;;;;5038380;28;20179;-83
2021/01/08 09:37:54;;;;;;;15.55;8.15;;;;;;;;;;5021346;28;20277;-84
2021/01/08 09:40:20;;;;;;;9.35;8.35;;;;;;;;;;5017734;28;20285;-82
2021/01/08 09:42:50;;;;;;;10.10;8.75;;;;;;;;;;5020288;28;20218;-84
2021/01/08 09:45:17;;;;;;;10.63;7.63;;;;;;;;;;5036813;28;20524;-85
2021/01/08 09:47:43;;;;;;;9.82;7.57;;;;;;;;;;5026262;28;20285;-84
2021/01/08 09:50:10;;;;;;;16.95;8.55;;;;;;;;;;5037768;28;20229;-85
2021/01/08 09:52:36;;;;;;;9.10;6.43;;;;;;;;;;5027157;28;20182;-85
2021/01/08 09:55:03;;;;;;;9.43;7.60;;;;;;;;;;5033008;28;20194;-84
2021/01/08 09:57:29;;;;;;;9.20;7.07;;;;;;;;;;5028127;28;20186;-84
2021/01/08 09:59:59;;;;;;;10.63;7.40;;;;;;;;;;5028770;28;20281;-85
2021/01/08 10:02:35;;;;;;;11.15;8.38;;;;;;;;;;5033086;28;20171;-85
2021/01/08 10:05:01;;;;;;;13.55;7.43;;;;;;;;;;5036571;28;20221;-84
2021/01/08 10:07:38;;;;;;;9.60;7.13;;;;;;;;;;5022047;28;20205;-86
2021/01/08 10:10:04;;;;;;;9.25;7.45;;;;;;;;;;5025393;28;20213;-85
2021/01/08 10:12:30;;;;;;;9.93;7.47;;;;;;;;;;5033490;28;20188;-85
2021/01/08 10:14:59;;;;;;;10.80;8.50;;;;;;;;;;5019904;28;20193;-85
2021/01/08 10:17:25;;;;;;;13.25;7.68;;;;;;;;;;5037778;28;20273;-85
2021/01/08 10:19:51;;;;;;;9.55;7.82;;;;;;;;;;5029049;28;20260;-85
2021/01/08 10:22:21;;;;;;;9.13;6.85;;;;;;;;;;5017271;28;20194;-85
2021/01/08 10:24:47;;;;;;;8.93;7.72;;;;;;;;;;5030998;28;20201;-85
2021/01/08 10:27:13;;;;;;;10.30;7.50;;;;;;;;;;5022149;28;20187;-84
2021/01/08 10:29:39;;;;;;;11.07;7.10;;;;;;;;;;5025824;28;20175;-85
2021/01/08 10:32:06;;;;;;;10.48;7.72;;;;;;;;;;5034865;28;20179;-84
2021/01/08 10:34:33;;;;;;;8.05;6.07;;;;;;;;;;5026349;28;20618;-85
2021/01/08 10:36:59;;;;;;;9.50;7.90;;;;;;;;;;5027871;28;20191;-85
2021/01/08 10:39:25;;;;;;;8.40;6.60;;;;;;;;;;5037264;28;20209;-85
2021/01/08 10:41:51;;;;;;;8.88;6.50;;;;;;;;;;5025988;28;20175;-84
2021/01/08 10:44:17;;;;;;;8.82;6.72;;;;;;;;;;5036015;28;20210;-85
2021/01/08 10:46:43;;;;;;;7.72;6.00;;;;;;;;;;5038667;28;20281;-85
2021/01/08 10:49:09;;;;;;;8.38;6.45;;;;;;;;;;5034117;28;20186;-84
2021/01/08 10:51:35;;;;;;;7.75;6.20;;;;;;;;;;5035414;28;20210;-86
2021/01/08 10:54:02;;;;;;;8.10;6.05;;;;;;;;;;5040474;28;24954;-87
2021/01/08 10:56:28;;;;;;;7.57;6.00;;;;;;;;;;5036438;28;20181;-87
2021/01/08 10:58:54;;;;;;;8.50;6.35;;;;;;;;;;5033717;28;20282;-85
2021/01/08 11:01:20;;;;;;;9.57;5.88;;;;;;;;;;5033609;28;20231;-85
2021/01/08 11:03:46;;;;;;;8.10;5.75;;;;;;;;;;5038379;28;20186;-86
2021/01/08 11:06:16;;;;;;;8.43;6.30;;;;;;;;;;5032214;28;20206;-85
2021/01/08 11:08:42;;;;;;;8.95;6.03;;;;;;;;;;5025195;28;20190;-85
2021/01/08 11:11:08;;;;;;;10.10;6.17;;;;;;;;;;5034179;28;20187;-85
2021/01/08 11:13:34;;;;;;;8.35;6.15;;;;;;;;;;5019477;28;20446;-84
2021/01/08 11:16:00;;;;;;;7.33;5.37;;;;;;;;;;5019721;28;20179;-85
2021/01/08 11:18:26;;;;;;;7.95;6.50;;;;;;;;;;5021542;28;20838;-85
2021/01/08 11:20:52;;;;;;;5.80;5.00;;;;;;;;;;5025073;28;20253;-84
2021/01/08 11:23:18;;;;;;;10.25;6.80;;;;;;;;;;5034307;28;20197;-84
2021/01/08 11:25:44;;;;;;;8.25;6.10;;;;;;;;;;5017730;28;20210;-85
2021/01/08 11:28:11;;;;;;;9.45;6.28;;;;;;;;;;5033484;28;20218;-85
2021/01/08 11:30:37;;;;;;;7.25;5.65;;;;;;;;;;5034234;28;20180;-85
2021/01/08 11:33:04;;;;;;;7.07;6.20;;;;;;;;;;5034206;28;20205;-85
2021/01/08 11:35:30;;;;;;;8.27;5.65;;;;;;;;;;5036389;28;20167;-85
2021/01/08 11:37:56;;;;;;;8.45;6.25;;;;;;;;;;5021322;28;20730;-85
2021/01/08 11:40:23;;;;;;;9.90;6.70;;;;;;;;;;5038700;28;20198;-84
2021/01/08 11:42:49;;;;;;;9.50;7.55;;;;;;;;;;5036479;28;20547;-85
2021/01/08 11:45:15;;;;;;;12.73;7.40;;;;;;;;;;5034595;28;20294;-85
2021/01/08 11:47:41;;;;;;;10.10;6.95;;;;;;;;;;5026441;28;20271;-85
2021/01/08 11:50:07;;;;;;;7.57;6.73;;;;;;;;;;5034371;28;20175;-85
2021/01/08 11:52:33;;;;;;;9.45;6.40;;;;;;;;;;5033345;28;20450;-85
2021/01/08 11:54:59;;;;;;;9.90;7.50;;;;;;;;;;5030039;28;20196;-85
2021/01/08 11:57:26;;;;;;;8.98;6.78;;;;;;;;;;5023011;28;20274;-85
2021/01/08 11:59:52;;;;;;;10.02;7.38;;;;;;;;;;5023614;28;20218;-85
2021/01/08 12:02:18;;;;;;;7.50;6.20;;;;;;;;;;5034320;28;20182;-85
2021/01/08 12:04:44;;;;;;;10.77;6.97;;;;;;;;;;5029198;28;20731;-85
2021/01/08 12:07:10;;;;;;;8.32;7.15;;;;;;;;;;5039252;28;20190;-85
2021/01/08 12:09:36;;;;;;;8.55;6.72;;;;;;;;;;5039136;28;20190;-85
2021/01/08 12:12:06;;;;;;;8.90;6.85;;;;;;;;;;5021082;28;20206;-85
2021/01/08 12:14:32;;;;;;;8.30;6.60;;;;;;;;;;5037442;28;20178;-86
2021/01/08 12:17:05;;;;;;;7.65;6.85;;;;;;;;;;5031269;28;20260;-86
2021/01/08 12:19:32;;;;;;;9.52;7.15;;;;;;;;;;5017055;28;20194;-87
2021/01/08 12:21:58;;;;;;;8.55;6.13;;;;;;;;;;5035401;28;20198;-87
2021/01/08 12:24:24;;;;;;;9.35;7.10;;;;;;;;;;5036781;28;20281;-86
2021/01/08 12:26:54;;;;;;;10.60;8.02;;;;;;;;;;5022494;28;20237;-86
2021/01/08 12:29:20;;;;;;;9.10;7.35;;;;;;;;;;5037272;28;20202;-85
2021/01/08 12:31:46;;;;;;;9.63;7.88;;;;;;;;;;5035915;28;20186;-85
2021/01/08 12:34:12;;;;;;;7.70;7.00;;;;;;;;;;5020245;28;20644;-85
2021/01/08 12:36:38;;;;;;;11.75;7.88;;;;;;;;;;5036574;28;20178;-85
2021/01/08 12:39:05;;;;;;;12.05;8.02;;;;;;;;;;5020555;28;20186;-86
2021/01/08 12:41:31;;;;;;;9.55;7.45;;;;;;;;;;5038980;28;20174;-86
2021/01/08 12:43:58;;;;;;;8.52;7.50;;;;;;;;;;5019887;28;20204;-86
2021/01/08 12:46:24;;;;;;;9.88;7.57;;;;;;;;;;5035545;28;20221;-85
2021/01/08 12:48:50;;;;;;;10.68;7.40;;;;;;;;;;5050846;28;20178;-85
2021/01/08 12:51:16;;;;;;;13.80;7.40;;;;;;;;;;5036359;28;20429;-85
2021/01/08 12:53:43;;;;;;;7.93;6.38;;;;;;;;;;5025651;28;20179;-85
2021/01/08 12:56:09;;;;;;;6.70;5.85;;;;;;;;;;5033157;28;20210;-85
2021/01/08 12:58:35;;;;;;;9.18;6.75;;;;;;;;;;5022935;28;20186;-86
2021/01/08 13:01:01;;;;;;;8.13;6.85;;;;;;;;;;5016797;28;20417;-86
2021/01/08 13:03:27;;;;;;;10.88;7.50;;;;;;;;;;5035352;28;20214;-86
2021/01/08 13:05:53;;;;;;;9.18;7.15;;;;;;;;;;5038036;28;20198;-85
2021/01/08 13:08:19;;;;;;;9.35;7.82;;;;;;;;;;5022754;28;20186;-85
2021/01/08 13:10:47;;;;;;;8.18;7.38;;;;;;;;;;5035836;28;20210;-85
2021/01/08 13:13:13;;;;;;;8.70;6.90;;;;;;;;;;5016942;28;20799;-85
2021/01/08 13:15:39;;;;;;;10.20;6.95;;;;;;;;;;5034436;28;20725;-85
2021/01/08 13:18:08;;;;;;;8.45;7.38;;;;;;;;;;5030907;28;20261;-84
2021/01/08 13:20:34;;;;;;;9.82;7.45;;;;;;;;;;5039930;28;20257;-85
2021/01/08 13:23:00;;;;;;;16.38;7.03;;;;;;;;;;5029968;28;20186;-85
2021/01/08 13:25:26;;;;;;;10.70;7.85;;;;;;;;;;5022522;28;20219;-85
2021/01/08 13:27:52;;;;;;;8.82;7.60;;;;;;;;;;5033455;28;20472;-85
2021/01/08 13:30:19;;;;;;;9.23;7.03;;;;;;;;;;5034652;28;20190;-85
2021/01/08 13:32:44;;;;;;;9.05;6.60;;;;;;;;;;5022447;28;20183;-85
2021/01/08 13:35:11;;;;;;;7.13;6.05;;;;;;;;;;5032761;28;20189;-86
2021/01/08 13:37:37;;;;;;;8.63;5.82;;;;;;;;;;5029617;28;20610;-85
2021/01/08 13:40:05;;;;;;;9.43;6.57;;;;;;;;;;5032447;28;20573;-86
2021/01/08 13:42:31;;;;;;;8.90;6.78;;;;;;;;;;5031043;28;20218;-86
2021/01/08 13:44:57;;;;;;;5.25;4.35;;;;;;;;;;5052348;28;20214;-85
2021/01/08 13:47:27;;;;;;;6.22;4.72;;;;;;;;;;5032913;28;20174;-85
2021/01/08 13:49:53;;;;;;;5.90;4.25;;;;;;;;;;5036679;28;20273;-85
2021/01/08 13:52:19;;;;;;;7.35;5.20;;;;;;;;;;5033778;28;20182;-84
2021/01/08 13:54:45;;;;;;;8.75;5.18;;;;;;;;;;5018215;28;20193;-85
2021/01/08 13:57:13;;;;;;;8.07;4.95;;;;;;;;;;5015886;28;20256;-85
2021/01/08 13:59:39;;;;;;;5.10;4.60;;;;;;;;;;5025203;28;20222;-86
2021/01/08 14:02:05;;;;;;;7.72;4.53;;;;;;;;;;5031463;28;20186;-86
2021/01/08 14:04:31;;;;;;;8.75;4.63;;;;;;;;;;5019293;28;20190;-86
2021/01/08 14:06:57;;;;;;;6.03;4.60;;;;;;;;;;5035423;28;20182;-87
2021/01/08 14:09:24;;;;;;;5.20;4.10;;;;;;;;;;5030871;28;20179;-86
2021/01/08 14:11:50;;;;;;;6.47;4.63;;;;;;;;;;5023027;28;20448;-86
2021/01/08 14:14:16;;;;;;;5.05;4.50;;;;;;;;;;5031828;28;20640;-85
2021/01/08 14:16:42;;;;;;;8.50;4.85;;;;;;;;;;5022096;28;20174;-86
2021/01/08 14:19:08;;;;;;;6.45;4.13;;;;;;;;;;5021419;28;20259;-86
2021/01/08 14:21:35;;;;;;;5.43;3.70;;;;;;;;;;5034583;28;20174;-86
2021/01/08 14:24:01;;;;;;;4.18;3.40;;;;;;;;;;5019955;28;20183;-85
2021/01/08 14:26:28;;;;;;;3.90;3.50;;;;;;;;;;5032418;28;20220;-86
2021/01/08 14:28:54;;;;;;;3.60;3.25;;;;;;;;;;5024394;28;20186;-86
2021/01/08 14:31:33;;;;;;;5.45;2.70;;;;;;;;;;5025737;28;20193;-85